sensor_id;sensor_type;location;lat;lon;timestamp;P1;durP1;ratioP1;P2;durP2;ratioP2
23730;SDS011;12046;44.702;10.622;2022-08-01T00:00:46;1.52;;;1.42;;
23730;SDS011;12046;44.702;10.622;2022-08-01T00:03:14;1.65;;;1.30;;
23730;SDS011;12046;44.702;10.622;2022-08-01T00:05:40;1.55;;;1.23;;
23730;SDS011;12046;44.702;10.622;2022-08-01T00:08:08;1.30;;;1.20;;
23730;SDS011;12046;44.702;10.622;2022-08-01T00:10:34;2.55;;;1.60;;
23730;SDS011;12046;44.702;10.622;2022-08-01T00:13:00;1.20;;;1.10;;
23730;SDS011;12046;44.702;10.622;2022-08-01T00:15:26;1.65;;;1.30;;
23730;SDS011;12046;44.702;10.622;2022-08-01T00:17:51;1.48;;;1.27;;
23730;SDS011;12046;44.702;10.622;2022-08-01T00:20:17;1.30;;;1.20;;
23730;SDS011;12046;44.702;10.622;2022-08-01T00:22:43;4.22;;;1.33;;
23730;SDS011;12046;44.702;10.622;2022-08-01T00:25:09;1.40;;;1.30;;
23730;SDS011;12046;44.702;10.622;2022-08-01T00:27:35;2.03;;;1.35;;
23730;SDS011;12046;44.702;10.622;2022-08-01T00:30:01;1.70;;;1.20;;
23730;SDS011;12046;44.702;10.622;2022-08-01T00:32:27;1.73;;;1.10;;
23730;SDS011;12046;44.702;10.622;2022-08-01T00:34:56;3.13;;;1.63;;
23730;SDS011;12046;44.702;10.622;2022-08-01T00:37:22;1.55;;;1.20;;
23730;SDS011;12046;44.702;10.622;2022-08-01T00:39:48;1.58;;;1.40;;
23730;SDS011;12046;44.702;10.622;2022-08-01T00:42:13;1.40;;;1.30;;
23730;SDS011;12046;44.702;10.622;2022-08-01T00:44:39;1.25;;;1.10;;
23730;SDS011;12046;44.702;10.622;2022-08-01T00:47:05;2.20;;;1.50;;
23730;SDS011;12046;44.702;10.622;2022-08-01T00:49:31;1.85;;;1.17;;
23730;SDS011;12046;44.702;10.622;2022-08-01T00:51:58;1.88;;;1.60;;
23730;SDS011;12046;44.702;10.622;2022-08-01T00:54:25;1.58;;;1.17;;
23730;SDS011;12046;44.702;10.622;2022-08-01T00:56:53;3.00;;;1.27;;
23730;SDS011;12046;44.702;10.622;2022-08-01T00:59:20;2.85;;;1.20;;
23730;SDS011;12046;44.702;10.622;2022-08-01T01:01:47;1.52;;;1.10;;
23730;SDS011;12046;44.702;10.622;2022-08-01T01:04:14;1.45;;;1.20;;
23730;SDS011;12046;44.702;10.622;2022-08-01T01:10:03;1.77;;;1.20;;
23730;SDS011;12046;44.702;10.622;2022-08-01T01:18:11;2.67;;;1.35;;
23730;SDS011;12046;44.702;10.622;2022-08-01T01:20:45;1.83;;;1.35;;
23730;SDS011;12046;44.702;10.622;2022-08-01T01:26:19;1.48;;;1.02;;
23730;SDS011;12046;44.702;10.622;2022-08-01T01:31:51;1.52;;;1.02;;
23730;SDS011;12046;44.702;10.622;2022-08-01T01:34:42;2.28;;;1.27;;
23730;SDS011;12046;44.702;10.622;2022-08-01T01:37:12;1.00;;;1.00;;
23730;SDS011;12046;44.702;10.622;2022-08-01T01:39:42;2.17;;;1.25;;
23730;SDS011;12046;44.702;10.622;2022-08-01T01:42:08;1.92;;;1.20;;
23730;SDS011;12046;44.702;10.622;2022-08-01T01:44:35;2.38;;;1.23;;
23730;SDS011;12046;44.702;10.622;2022-08-01T01:47:03;1.90;;;1.25;;
23730;SDS011;12046;44.702;10.622;2022-08-01T01:49:30;1.35;;;1.25;;
23730;SDS011;12046;44.702;10.622;2022-08-01T01:51:58;1.90;;;1.13;;
23730;SDS011;12046;44.702;10.622;2022-08-01T01:54:30;1.67;;;1.40;;
23730;SDS011;12046;44.702;10.622;2022-08-01T01:56:58;0.95;;;0.90;;
23730;SDS011;12046;44.702;10.622;2022-08-01T01:59:28;1.27;;;1.17;;
23730;SDS011;12046;44.702;10.622;2022-08-01T02:01:57;2.45;;;1.20;;
23730;SDS011;12046;44.702;10.622;2022-08-01T02:04:26;3.00;;;1.40;;
23730;SDS011;12046;44.702;10.622;2022-08-01T02:06:53;1.65;;;1.55;;
23730;SDS011;12046;44.702;10.622;2022-08-01T02:09:21;1.90;;;1.17;;
23730;SDS011;12046;44.702;10.622;2022-08-01T02:11:49;2.33;;;1.50;;
23730;SDS011;12046;44.702;10.622;2022-08-01T02:14:15;1.67;;;1.20;;
23730;SDS011;12046;44.702;10.622;2022-08-01T02:16:44;1.83;;;1.20;;
23730;SDS011;12046;44.702;10.622;2022-08-01T02:19:13;1.52;;;1.20;;
23730;SDS011;12046;44.702;10.622;2022-08-01T02:24:17;1.65;;;1.10;;
23730;SDS011;12046;44.702;10.622;2022-08-01T02:26:56;5.15;;;1.10;;
23730;SDS011;12046;44.702;10.622;2022-08-01T02:32:12;1.35;;;1.20;;
23730;SDS011;12046;44.702;10.622;2022-08-01T02:34:46;1.67;;;1.40;;
23730;SDS011;12046;44.702;10.622;2022-08-01T02:37:14;1.27;;;1.17;;
23730;SDS011;12046;44.702;10.622;2022-08-01T02:39:41;5.35;;;1.60;;
23730;SDS011;12046;44.702;10.622;2022-08-01T02:42:08;1.27;;;1.10;;
23730;SDS011;12046;44.702;10.622;2022-08-01T02:44:39;3.13;;;1.08;;
23730;SDS011;12046;44.702;10.622;2022-08-01T02:47:08;1.92;;;1.50;;
23730;SDS011;12046;44.702;10.622;2022-08-01T02:49:45;3.72;;;1.30;;
23730;SDS011;12046;44.702;10.622;2022-08-01T02:52:14;3.35;;;1.60;;
23730;SDS011;12046;44.702;10.622;2022-08-01T02:54:45;1.80;;;0.95;;
23730;SDS011;12046;44.702;10.622;2022-08-01T02:57:14;1.73;;;1.20;;
23730;SDS011;12046;44.702;10.622;2022-08-01T02:59:43;1.38;;;1.20;;
23730;SDS011;12046;44.702;10.622;2022-08-01T03:02:10;2.47;;;1.27;;
23730;SDS011;12046;44.702;10.622;2022-08-01T03:04:38;2.55;;;1.15;;
23730;SDS011;12046;44.702;10.622;2022-08-01T03:07:06;4.25;;;1.17;;
23730;SDS011;12046;44.702;10.622;2022-08-01T03:09:38;1.33;;;1.23;;
23730;SDS011;12046;44.702;10.622;2022-08-01T03:12:09;2.28;;;1.20;;
23730;SDS011;12046;44.702;10.622;2022-08-01T03:14:39;2.97;;;1.27;;
23730;SDS011;12046;44.702;10.622;2022-08-01T03:17:07;2.42;;;1.60;;
23730;SDS011;12046;44.702;10.622;2022-08-01T03:19:34;3.35;;;1.27;;
23730;SDS011;12046;44.702;10.622;2022-08-01T03:22:03;3.40;;;2.10;;
23730;SDS011;12046;44.702;10.622;2022-08-01T03:24:33;2.33;;;1.77;;
23730;SDS011;12046;44.702;10.622;2022-08-01T03:27:02;3.28;;;2.28;;
23730;SDS011;12046;44.702;10.622;2022-08-01T03:29:28;5.65;;;2.22;;
23730;SDS011;12046;44.702;10.622;2022-08-01T03:31:57;4.97;;;1.85;;
23730;SDS011;12046;44.702;10.622;2022-08-01T03:34:25;2.20;;;2.00;;
23730;SDS011;12046;44.702;10.622;2022-08-01T03:37:38;2.88;;;2.35;;
23730;SDS011;12046;44.702;10.622;2022-08-01T03:42:46;3.08;;;2.78;;
23730;SDS011;12046;44.702;10.622;2022-08-01T03:45:37;3.35;;;2.90;;
23730;SDS011;12046;44.702;10.622;2022-08-01T03:48:08;7.85;;;2.80;;
23730;SDS011;12046;44.702;10.622;2022-08-01T03:50:39;5.28;;;2.58;;
23730;SDS011;12046;44.702;10.622;2022-08-01T03:53:08;5.63;;;2.47;;
23730;SDS011;12046;44.702;10.622;2022-08-01T03:55:35;5.97;;;2.40;;
23730;SDS011;12046;44.702;10.622;2022-08-01T03:58:04;10.23;;;2.75;;
23730;SDS011;12046;44.702;10.622;2022-08-01T04:00:31;5.40;;;2.60;;
23730;SDS011;12046;44.702;10.622;2022-08-01T04:02:58;5.93;;;2.30;;
23730;SDS011;12046;44.702;10.622;2022-08-01T04:05:24;6.53;;;2.40;;
23730;SDS011;12046;44.702;10.622;2022-08-01T04:07:50;6.55;;;2.30;;
23730;SDS011;12046;44.702;10.622;2022-08-01T04:10:23;4.55;;;2.53;;
23730;SDS011;12046;44.702;10.622;2022-08-01T04:12:50;3.28;;;2.60;;
23730;SDS011;12046;44.702;10.622;2022-08-01T04:15:16;5.40;;;2.63;;
23730;SDS011;12046;44.702;10.622;2022-08-01T04:17:42;5.07;;;2.90;;
23730;SDS011;12046;44.702;10.622;2022-08-01T04:20:08;8.63;;;2.70;;
23730;SDS011;12046;44.702;10.622;2022-08-01T04:22:36;5.88;;;2.65;;
23730;SDS011;12046;44.702;10.622;2022-08-01T04:25:03;2.85;;;2.40;;
23730;SDS011;12046;44.702;10.622;2022-08-01T04:27:35;3.25;;;2.47;;
23730;SDS011;12046;44.702;10.622;2022-08-01T04:30:04;2.33;;;2.13;;
23730;SDS011;12046;44.702;10.622;2022-08-01T04:32:33;4.47;;;2.35;;
23730;SDS011;12046;44.702;10.622;2022-08-01T04:35:02;4.28;;;2.85;;
23730;SDS011;12046;44.702;10.622;2022-08-01T04:37:31;3.83;;;2.67;;
23730;SDS011;12046;44.702;10.622;2022-08-01T04:40:06;5.90;;;2.92;;
23730;SDS011;12046;44.702;10.622;2022-08-01T04:42:35;6.70;;;2.42;;
23730;SDS011;12046;44.702;10.622;2022-08-01T04:45:03;7.63;;;2.65;;
23730;SDS011;12046;44.702;10.622;2022-08-01T04:47:30;2.85;;;2.53;;
23730;SDS011;12046;44.702;10.622;2022-08-01T04:50:05;2.95;;;2.55;;
23730;SDS011;12046;44.702;10.622;2022-08-01T04:52:35;4.20;;;2.33;;
23730;SDS011;12046;44.702;10.622;2022-08-01T04:55:03;3.53;;;1.77;;
23730;SDS011;12046;44.702;10.622;2022-08-01T04:57:37;2.42;;;2.05;;
23730;SDS011;12046;44.702;10.622;2022-08-01T05:00:06;2.70;;;1.80;;
23730;SDS011;12046;44.702;10.622;2022-08-01T05:02:33;2.25;;;2.00;;
23730;SDS011;12046;44.702;10.622;2022-08-01T05:04:59;2.85;;;2.13;;
23730;SDS011;12046;44.702;10.622;2022-08-01T05:07:24;2.40;;;2.00;;
23730;SDS011;12046;44.702;10.622;2022-08-01T05:09:50;2.38;;;2.15;;
23730;SDS011;12046;44.702;10.622;2022-08-01T05:12:16;4.05;;;2.50;;
23730;SDS011;12046;44.702;10.622;2022-08-01T05:14:43;3.75;;;2.50;;
23730;SDS011;12046;44.702;10.622;2022-08-01T05:17:09;3.28;;;2.30;;
23730;SDS011;12046;44.702;10.622;2022-08-01T05:19:36;2.28;;;2.03;;
23730;SDS011;12046;44.702;10.622;2022-08-01T05:22:04;2.22;;;2.03;;
23730;SDS011;12046;44.702;10.622;2022-08-01T05:24:31;2.40;;;1.92;;
23730;SDS011;12046;44.702;10.622;2022-08-01T05:27:00;3.30;;;2.10;;
23730;SDS011;12046;44.702;10.622;2022-08-01T05:29:27;5.20;;;2.10;;
23730;SDS011;12046;44.702;10.622;2022-08-01T05:31:53;1.88;;;1.75;;
23730;SDS011;12046;44.702;10.622;2022-08-01T05:34:19;3.83;;;1.92;;
23730;SDS011;12046;44.702;10.622;2022-08-01T05:36:46;3.05;;;1.88;;
23730;SDS011;12046;44.702;10.622;2022-08-01T05:39:12;3.40;;;1.50;;
23730;SDS011;12046;44.702;10.622;2022-08-01T05:41:38;2.47;;;1.80;;
23730;SDS011;12046;44.702;10.622;2022-08-01T05:44:05;2.45;;;1.63;;
23730;SDS011;12046;44.702;10.622;2022-08-01T05:46:31;1.60;;;1.50;;
23730;SDS011;12046;44.702;10.622;2022-08-01T05:49:00;2.30;;;1.52;;
23730;SDS011;12046;44.702;10.622;2022-08-01T05:51:27;1.50;;;1.40;;
23730;SDS011;12046;44.702;10.622;2022-08-01T05:53:53;2.88;;;1.65;;
23730;SDS011;12046;44.702;10.622;2022-08-01T05:56:20;3.33;;;1.60;;
23730;SDS011;12046;44.702;10.622;2022-08-01T05:58:46;2.80;;;1.60;;
23730;SDS011;12046;44.702;10.622;2022-08-01T06:01:13;2.80;;;1.63;;
23730;SDS011;12046;44.702;10.622;2022-08-01T06:03:39;3.75;;;1.48;;
23730;SDS011;12046;44.702;10.622;2022-08-01T06:06:04;2.95;;;1.98;;
23730;SDS011;12046;44.702;10.622;2022-08-01T06:08:30;2.70;;;1.83;;
23730;SDS011;12046;44.702;10.622;2022-08-01T06:10:57;2.72;;;1.70;;
23730;SDS011;12046;44.702;10.622;2022-08-01T06:13:23;3.83;;;2.33;;
23730;SDS011;12046;44.702;10.622;2022-08-01T06:15:49;2.78;;;1.70;;
23730;SDS011;12046;44.702;10.622;2022-08-01T06:18:15;3.92;;;1.98;;
23730;SDS011;12046;44.702;10.622;2022-08-01T06:20:41;2.97;;;1.88;;
23730;SDS011;12046;44.702;10.622;2022-08-01T06:23:08;3.42;;;1.55;;
23730;SDS011;12046;44.702;10.622;2022-08-01T06:25:34;2.15;;;1.83;;
23730;SDS011;12046;44.702;10.622;2022-08-01T06:28:00;6.55;;;1.88;;
23730;SDS011;12046;44.702;10.622;2022-08-01T06:30:26;1.85;;;1.50;;
23730;SDS011;12046;44.702;10.622;2022-08-01T06:32:52;2.90;;;1.92;;
23730;SDS011;12046;44.702;10.622;2022-08-01T06:35:21;2.88;;;1.70;;
23730;SDS011;12046;44.702;10.622;2022-08-01T06:37:46;2.67;;;1.67;;
23730;SDS011;12046;44.702;10.622;2022-08-01T06:40:14;3.55;;;1.75;;
23730;SDS011;12046;44.702;10.622;2022-08-01T06:42:40;11.57;;;1.90;;
23730;SDS011;12046;44.702;10.622;2022-08-01T06:45:06;2.97;;;1.67;;
23730;SDS011;12046;44.702;10.622;2022-08-01T06:47:36;3.88;;;1.85;;
23730;SDS011;12046;44.702;10.622;2022-08-01T06:50:03;2.65;;;1.58;;
23730;SDS011;12046;44.702;10.622;2022-08-01T06:52:32;6.05;;;2.20;;
23730;SDS011;12046;44.702;10.622;2022-08-01T06:54:58;9.13;;;1.85;;
23730;SDS011;12046;44.702;10.622;2022-08-01T06:57:25;1.73;;;1.42;;
23730;SDS011;12046;44.702;10.622;2022-08-01T06:59:51;3.05;;;1.77;;
23730;SDS011;12046;44.702;10.622;2022-08-01T07:02:17;1.70;;;1.60;;
23730;SDS011;12046;44.702;10.622;2022-08-01T07:04:43;5.45;;;1.92;;
23730;SDS011;12046;44.702;10.622;2022-08-01T07:07:09;8.82;;;1.80;;
23730;SDS011;12046;44.702;10.622;2022-08-01T07:09:35;2.80;;;1.52;;
23730;SDS011;12046;44.702;10.622;2022-08-01T07:12:02;3.65;;;1.52;;
23730;SDS011;12046;44.702;10.622;2022-08-01T07:14:29;1.60;;;1.50;;
23730;SDS011;12046;44.702;10.622;2022-08-01T07:16:55;1.40;;;1.30;;
23730;SDS011;12046;44.702;10.622;2022-08-01T07:19:20;2.28;;;1.30;;
23730;SDS011;12046;44.702;10.622;2022-08-01T07:21:46;1.52;;;1.02;;
23730;SDS011;12046;44.702;10.622;2022-08-01T07:24:13;1.40;;;1.30;;
23730;SDS011;12046;44.702;10.622;2022-08-01T07:26:43;2.55;;;1.60;;
23730;SDS011;12046;44.702;10.622;2022-08-01T07:29:11;2.78;;;1.70;;
23730;SDS011;12046;44.702;10.622;2022-08-01T07:31:37;1.70;;;1.60;;
23730;SDS011;12046;44.702;10.622;2022-08-01T07:34:03;3.03;;;1.50;;
23730;SDS011;12046;44.702;10.622;2022-08-01T07:36:29;3.28;;;1.60;;
23730;SDS011;12046;44.702;10.622;2022-08-01T07:38:57;6.82;;;2.10;;
23730;SDS011;12046;44.702;10.622;2022-08-01T07:41:23;4.05;;;1.52;;
23730;SDS011;12046;44.702;10.622;2022-08-01T07:43:49;5.15;;;1.70;;
23730;SDS011;12046;44.702;10.622;2022-08-01T07:46:15;1.80;;;1.50;;
23730;SDS011;12046;44.702;10.622;2022-08-01T07:48:41;4.10;;;2.22;;
23730;SDS011;12046;44.702;10.622;2022-08-01T07:51:08;2.88;;;1.42;;
23730;SDS011;12046;44.702;10.622;2022-08-01T07:53:35;2.95;;;1.83;;
23730;SDS011;12046;44.702;10.622;2022-08-01T07:56:01;4.47;;;1.90;;
23730;SDS011;12046;44.702;10.622;2022-08-01T07:58:30;2.42;;;2.10;;
23730;SDS011;12046;44.702;10.622;2022-08-01T08:00:56;5.55;;;2.00;;
23730;SDS011;12046;44.702;10.622;2022-08-01T08:03:22;2.95;;;2.00;;
23730;SDS011;12046;44.702;10.622;2022-08-01T08:05:48;3.55;;;1.77;;
23730;SDS011;12046;44.702;10.622;2022-08-01T08:08:13;4.20;;;1.95;;
23730;SDS011;12046;44.702;10.622;2022-08-01T08:10:41;3.70;;;1.77;;
23730;SDS011;12046;44.702;10.622;2022-08-01T08:13:06;3.63;;;1.85;;
23730;SDS011;12046;44.702;10.622;2022-08-01T08:15:32;5.05;;;1.58;;
23730;SDS011;12046;44.702;10.622;2022-08-01T08:17:58;3.30;;;1.90;;
23730;SDS011;12046;44.702;10.622;2022-08-01T08:20:24;4.28;;;1.60;;
23730;SDS011;12046;44.702;10.622;2022-08-01T08:22:52;6.20;;;1.98;;
23730;SDS011;12046;44.702;10.622;2022-08-01T08:25:18;1.88;;;1.70;;
23730;SDS011;12046;44.702;10.622;2022-08-01T08:27:45;3.90;;;1.85;;
23730;SDS011;12046;44.702;10.622;2022-08-01T08:30:12;2.63;;;1.60;;
23730;SDS011;12046;44.702;10.622;2022-08-01T08:32:45;4.93;;;2.13;;
23730;SDS011;12046;44.702;10.622;2022-08-01T08:35:11;2.90;;;1.60;;
23730;SDS011;12046;44.702;10.622;2022-08-01T08:37:40;13.02;;;2.90;;
23730;SDS011;12046;44.702;10.622;2022-08-01T08:40:06;3.92;;;2.00;;
23730;SDS011;12046;44.702;10.622;2022-08-01T08:42:33;4.00;;;2.00;;
23730;SDS011;12046;44.702;10.622;2022-08-01T08:45:05;3.42;;;1.67;;
23730;SDS011;12046;44.702;10.622;2022-08-01T08:47:31;6.72;;;1.98;;
23730;SDS011;12046;44.702;10.622;2022-08-01T08:50:00;2.92;;;2.05;;
23730;SDS011;12046;44.702;10.622;2022-08-01T08:52:29;2.60;;;2.00;;
23730;SDS011;12046;44.702;10.622;2022-08-01T08:54:56;4.72;;;2.10;;
23730;SDS011;12046;44.702;10.622;2022-08-01T08:57:23;3.30;;;1.58;;
23730;SDS011;12046;44.702;10.622;2022-08-01T08:59:49;9.02;;;1.60;;
23730;SDS011;12046;44.702;10.622;2022-08-01T09:02:17;3.63;;;1.50;;
23730;SDS011;12046;44.702;10.622;2022-08-01T09:04:43;2.30;;;1.80;;
23730;SDS011;12046;44.702;10.622;2022-08-01T09:07:09;6.63;;;1.55;;
23730;SDS011;12046;44.702;10.622;2022-08-01T09:09:36;5.90;;;1.52;;
23730;SDS011;12046;44.702;10.622;2022-08-01T09:12:02;1.88;;;1.70;;
23730;SDS011;12046;44.702;10.622;2022-08-01T09:14:29;3.55;;;1.52;;
23730;SDS011;12046;44.702;10.622;2022-08-01T09:17:00;1.75;;;1.65;;
23730;SDS011;12046;44.702;10.622;2022-08-01T09:19:34;2.05;;;1.20;;
23730;SDS011;12046;44.702;10.622;2022-08-01T09:22:02;1.38;;;1.27;;
23730;SDS011;12046;44.702;10.622;2022-08-01T09:24:29;1.63;;;1.20;;
23730;SDS011;12046;44.702;10.622;2022-08-01T09:27:00;2.75;;;1.40;;
23730;SDS011;12046;44.702;10.622;2022-08-01T09:32:06;6.28;;;1.40;;
23730;SDS011;12046;44.702;10.622;2022-08-01T09:37:15;6.47;;;2.30;;
23730;SDS011;12046;44.702;10.622;2022-08-01T09:46:04;4.60;;;1.48;;
23730;SDS011;12046;44.702;10.622;2022-08-01T09:48:54;3.08;;;1.92;;
23730;SDS011;12046;44.702;10.622;2022-08-01T09:51:32;5.07;;;1.70;;
23730;SDS011;12046;44.702;10.622;2022-08-01T09:54:01;1.70;;;1.60;;
23730;SDS011;12046;44.702;10.622;2022-08-01T09:56:38;3.28;;;1.63;;
23730;SDS011;12046;44.702;10.622;2022-08-01T09:59:07;3.92;;;1.70;;
23730;SDS011;12046;44.702;10.622;2022-08-01T10:01:48;2.55;;;1.60;;
23730;SDS011;12046;44.702;10.622;2022-08-01T10:04:18;2.00;;;1.30;;
23730;SDS011;12046;44.702;10.622;2022-08-01T10:06:47;1.60;;;1.02;;
23730;SDS011;12046;44.702;10.622;2022-08-01T10:09:51;1.30;;;1.20;;
23730;SDS011;12046;44.702;10.622;2022-08-01T10:12:12;2.65;;;1.27;;
23730;SDS011;12046;44.702;10.622;2022-08-01T10:14:40;3.15;;;1.30;;
23730;SDS011;12046;44.702;10.622;2022-08-01T10:17:08;3.60;;;1.40;;
23730;SDS011;12046;44.702;10.622;2022-08-01T10:19:36;1.92;;;1.08;;
23730;SDS011;12046;44.702;10.622;2022-08-01T10:22:10;1.50;;;1.33;;
23730;SDS011;12046;44.702;10.622;2022-08-01T10:24:42;1.80;;;1.23;;
23730;SDS011;12046;44.702;10.622;2022-08-01T10:27:10;1.13;;;1.02;;
23730;SDS011;12046;44.702;10.622;2022-08-01T10:29:40;3.85;;;1.73;;
23730;SDS011;12046;44.702;10.622;2022-08-01T10:32:06;1.30;;;1.20;;
23730;SDS011;12046;44.702;10.622;2022-08-01T10:34:34;2.35;;;1.35;;
23730;SDS011;12046;44.702;10.622;2022-08-01T10:37:03;5.72;;;1.25;;
23730;SDS011;12046;44.702;10.622;2022-08-01T10:39:30;1.65;;;1.25;;
23730;SDS011;12046;44.702;10.622;2022-08-01T10:41:57;1.55;;;1.25;;
23730;SDS011;12046;44.702;10.622;2022-08-01T10:44:24;3.92;;;1.17;;
23730;SDS011;12046;44.702;10.622;2022-08-01T10:46:54;4.72;;;1.20;;
23730;SDS011;12046;44.702;10.622;2022-08-01T10:49:51;2.70;;;1.77;;
23730;SDS011;12046;44.702;10.622;2022-08-01T10:52:24;2.50;;;1.80;;
23730;SDS011;12046;44.702;10.622;2022-08-01T10:55:01;1.63;;;1.50;;
23730;SDS011;12046;44.702;10.622;2022-08-01T10:57:43;2.15;;;1.42;;
23730;SDS011;12046;44.702;10.622;2022-08-01T11:00:21;8.40;;;1.42;;
23730;SDS011;12046;44.702;10.622;2022-08-01T11:03:01;3.28;;;1.17;;
23730;SDS011;12046;44.702;10.622;2022-08-01T11:05:30;2.53;;;1.20;;
23730;SDS011;12046;44.702;10.622;2022-08-01T11:07:58;1.90;;;1.30;;
23730;SDS011;12046;44.702;10.622;2022-08-01T11:13:04;3.63;;;1.45;;
23730;SDS011;12046;44.702;10.622;2022-08-01T11:15:34;1.88;;;1.15;;
23730;SDS011;12046;44.702;10.622;2022-08-01T11:18:04;11.88;;;1.70;;
23730;SDS011;12046;44.702;10.622;2022-08-01T11:20:59;1.55;;;1.13;;
23730;SDS011;12046;44.702;10.622;2022-08-01T11:23:27;1.40;;;1.30;;
23730;SDS011;12046;44.702;10.622;2022-08-01T11:28:24;1.73;;;1.50;;
23730;SDS011;12046;44.702;10.622;2022-08-01T11:31:24;2.15;;;1.35;;
23730;SDS011;12046;44.702;10.622;2022-08-01T11:52:10;12.98;;;1.67;;
23730;SDS011;12046;44.702;10.622;2022-08-01T11:54:46;2.90;;;1.40;;
23730;SDS011;12046;44.702;10.622;2022-08-01T11:57:15;2.92;;;1.20;;
23730;SDS011;12046;44.702;10.622;2022-08-01T12:02:19;1.08;;;1.05;;
23730;SDS011;12046;44.702;10.622;2022-08-01T12:04:48;1.92;;;1.30;;
23730;SDS011;12046;44.702;10.622;2022-08-01T12:07:17;3.67;;;1.40;;
23730;SDS011;12046;44.702;10.622;2022-08-01T12:09:44;1.60;;;1.50;;
23730;SDS011;12046;44.702;10.622;2022-08-01T12:12:14;3.00;;;1.15;;
23730;SDS011;12046;44.702;10.622;2022-08-01T12:14:45;1.35;;;1.00;;
23730;SDS011;12046;44.702;10.622;2022-08-01T12:17:18;4.70;;;2.30;;
23730;SDS011;12046;44.702;10.622;2022-08-01T12:19:43;2.88;;;1.25;;
23730;SDS011;12046;44.702;10.622;2022-08-01T12:22:14;2.22;;;1.33;;
23730;SDS011;12046;44.702;10.622;2022-08-01T12:24:41;1.75;;;1.35;;
23730;SDS011;12046;44.702;10.622;2022-08-01T12:27:09;3.47;;;1.30;;
23730;SDS011;12046;44.702;10.622;2022-08-01T12:29:39;3.78;;;1.50;;
23730;SDS011;12046;44.702;10.622;2022-08-01T12:32:25;2.08;;;1.05;;
23730;SDS011;12046;44.702;10.622;2022-08-01T12:35:00;1.20;;;1.17;;
23730;SDS011;12046;44.702;10.622;2022-08-01T12:37:28;1.75;;;1.40;;
23730;SDS011;12046;44.702;10.622;2022-08-01T12:39:55;2.35;;;1.10;;
23730;SDS011;12046;44.702;10.622;2022-08-01T12:42:22;3.72;;;1.33;;
23730;SDS011;12046;44.702;10.622;2022-08-01T12:44:51;2.45;;;1.10;;
23730;SDS011;12046;44.702;10.622;2022-08-01T12:47:18;3.92;;;1.33;;
23730;SDS011;12046;44.702;10.622;2022-08-01T12:49:45;2.55;;;1.20;;
23730;SDS011;12046;44.702;10.622;2022-08-01T12:52:13;1.20;;;1.10;;
23730;SDS011;12046;44.702;10.622;2022-08-01T12:57:25;2.08;;;1.35;;
23730;SDS011;12046;44.702;10.622;2022-08-01T13:00:08;1.58;;;1.48;;
23730;SDS011;12046;44.702;10.622;2022-08-01T13:02:46;1.20;;;1.10;;
23730;SDS011;12046;44.702;10.622;2022-08-01T13:05:13;1.67;;;1.15;;
23730;SDS011;12046;44.702;10.622;2022-08-01T13:07:48;1.60;;;1.30;;
23730;SDS011;12046;44.702;10.622;2022-08-01T13:10:23;2.38;;;1.13;;
23730;SDS011;12046;44.702;10.622;2022-08-01T13:12:52;2.67;;;1.95;;
23730;SDS011;12046;44.702;10.622;2022-08-01T13:17:52;1.63;;;1.20;;
23730;SDS011;12046;44.702;10.622;2022-08-01T13:20:29;1.55;;;1.30;;
23730;SDS011;12046;44.702;10.622;2022-08-01T13:23:10;1.33;;;0.95;;
23730;SDS011;12046;44.702;10.622;2022-08-01T13:25:58;4.70;;;1.30;;
23730;SDS011;12046;44.702;10.622;2022-08-01T13:28:24;2.35;;;1.30;;
23730;SDS011;12046;44.702;10.622;2022-08-01T13:33:24;1.50;;;1.38;;
23730;SDS011;12046;44.702;10.622;2022-08-01T13:35:53;1.67;;;1.40;;
23730;SDS011;12046;44.702;10.622;2022-08-01T13:38:20;2.65;;;1.52;;
23730;SDS011;12046;44.702;10.622;2022-08-01T13:41:06;1.25;;;1.15;;
23730;SDS011;12046;44.702;10.622;2022-08-01T13:43:32;0.95;;;0.80;;
23730;SDS011;12046;44.702;10.622;2022-08-01T13:46:00;2.08;;;1.30;;
23730;SDS011;12046;44.702;10.622;2022-08-01T13:48:29;1.75;;;1.10;;
23730;SDS011;12046;44.702;10.622;2022-08-01T13:50:56;1.60;;;1.27;;
23730;SDS011;12046;44.702;10.622;2022-08-01T13:53:22;3.53;;;1.40;;
23730;SDS011;12046;44.702;10.622;2022-08-01T13:55:49;1.73;;;1.25;;
23730;SDS011;12046;44.702;10.622;2022-08-01T13:58:15;2.42;;;1.05;;
23730;SDS011;12046;44.702;10.622;2022-08-01T14:00:41;3.63;;;1.30;;
23730;SDS011;12046;44.702;10.622;2022-08-01T14:03:08;1.40;;;1.30;;
23730;SDS011;12046;44.702;10.622;2022-08-01T14:05:35;3.30;;;1.30;;
23730;SDS011;12046;44.702;10.622;2022-08-01T14:08:02;2.70;;;1.10;;
23730;SDS011;12046;44.702;10.622;2022-08-01T14:10:28;3.45;;;0.98;;
23730;SDS011;12046;44.702;10.622;2022-08-01T14:12:54;1.35;;;1.25;;
23730;SDS011;12046;44.702;10.622;2022-08-01T14:15:22;1.30;;;1.10;;
23730;SDS011;12046;44.702;10.622;2022-08-01T14:17:49;1.98;;;1.20;;
23730;SDS011;12046;44.702;10.622;2022-08-01T14:20:15;1.92;;;1.33;;
23730;SDS011;12046;44.702;10.622;2022-08-01T14:22:47;1.77;;;1.33;;
23730;SDS011;12046;44.702;10.622;2022-08-01T14:25:13;3.90;;;1.30;;
23730;SDS011;12046;44.702;10.622;2022-08-01T14:27:40;1.45;;;1.27;;
23730;SDS011;12046;44.702;10.622;2022-08-01T14:30:10;1.95;;;1.17;;
23730;SDS011;12046;44.702;10.622;2022-08-01T14:32:37;1.15;;;1.02;;
23730;SDS011;12046;44.702;10.622;2022-08-01T14:35:04;2.28;;;1.02;;
23730;SDS011;12046;44.702;10.622;2022-08-01T14:37:31;1.30;;;1.15;;
23730;SDS011;12046;44.702;10.622;2022-08-01T14:39:58;5.05;;;1.00;;
23730;SDS011;12046;44.702;10.622;2022-08-01T14:42:30;2.97;;;1.00;;
23730;SDS011;12046;44.702;10.622;2022-08-01T14:44:56;1.08;;;0.80;;
23730;SDS011;12046;44.702;10.622;2022-08-01T14:47:22;1.83;;;1.10;;
23730;SDS011;12046;44.702;10.622;2022-08-01T14:49:48;1.35;;;0.80;;
23730;SDS011;12046;44.702;10.622;2022-08-01T14:52:15;1.50;;;0.75;;
23730;SDS011;12046;44.702;10.622;2022-08-01T14:54:41;0.98;;;0.98;;
23730;SDS011;12046;44.702;10.622;2022-08-01T14:57:07;0.63;;;0.60;;
23730;SDS011;12046;44.702;10.622;2022-08-01T14:59:34;1.55;;;0.98;;
23730;SDS011;12046;44.702;10.622;2022-08-01T15:02:00;0.70;;;0.70;;
23730;SDS011;12046;44.702;10.622;2022-08-01T15:04:26;1.38;;;0.90;;
23730;SDS011;12046;44.702;10.622;2022-08-01T15:06:53;1.08;;;0.88;;
23730;SDS011;12046;44.702;10.622;2022-08-01T15:09:19;5.82;;;0.90;;
23730;SDS011;12046;44.702;10.622;2022-08-01T15:11:52;2.00;;;0.90;;
23730;SDS011;12046;44.702;10.622;2022-08-01T15:14:18;2.28;;;1.00;;
23730;SDS011;12046;44.702;10.622;2022-08-01T15:17:02;1.63;;;1.00;;
23730;SDS011;12046;44.702;10.622;2022-08-01T15:19:29;1.15;;;0.90;;
23730;SDS011;12046;44.702;10.622;2022-08-01T15:21:55;1.20;;;1.00;;
23730;SDS011;12046;44.702;10.622;2022-08-01T15:24:21;3.63;;;1.48;;
23730;SDS011;12046;44.702;10.622;2022-08-01T15:26:47;2.00;;;1.08;;
23730;SDS011;12046;44.702;10.622;2022-08-01T15:29:13;1.30;;;1.20;;
23730;SDS011;12046;44.702;10.622;2022-08-01T15:31:40;1.30;;;0.93;;
23730;SDS011;12046;44.702;10.622;2022-08-01T15:34:06;1.88;;;1.00;;
23730;SDS011;12046;44.702;10.622;2022-08-01T15:36:33;3.22;;;1.10;;
23730;SDS011;12046;44.702;10.622;2022-08-01T15:38:59;1.35;;;1.05;;
23730;SDS011;12046;44.702;10.622;2022-08-01T15:41:25;1.73;;;1.02;;
23730;SDS011;12046;44.702;10.622;2022-08-01T15:43:51;0.80;;;0.80;;
23730;SDS011;12046;44.702;10.622;2022-08-01T15:46:35;1.02;;;0.95;;
23730;SDS011;12046;44.702;10.622;2022-08-01T15:49:02;1.77;;;0.98;;
23730;SDS011;12046;44.702;10.622;2022-08-01T15:51:29;2.08;;;1.70;;